createdAt,value
2018-04-18T00:01:30.691Z,77.98
2018-04-18T00:03:58.266Z,77.72
2018-04-18T00:06:25.826Z,78.56
2018-04-18T00:08:53.351Z,78.58
2018-04-18T00:11:20.932Z,77.57
2018-04-18T00:13:48.583Z,76.99
2018-04-18T00:16:16.147Z,76.41
2018-04-18T00:18:43.690Z,76.26
2018-04-18T00:21:11.237Z,76.39
2018-04-18T00:23:38.821Z,76.12
2018-04-18T00:26:06.389Z,76.01
2018-04-18T00:28:33.916Z,76.91
2018-04-18T00:31:01.499Z,76.75
2018-04-18T00:33:29.062Z,77.38
2018-04-18T00:35:56.727Z,76.36
2018-04-18T00:38:24.280Z,76.57
2018-04-18T00:40:51.797Z,77.04
2018-04-18T00:43:19.457Z,76.68
2018-04-18T00:45:47.062Z,76.38
2018-04-18T00:48:14.637Z,77.22
2018-04-18T00:50:42.291Z,76.89
2018-04-18T00:53:09.843Z,76.84
2018-04-18T00:55:37.405Z,77.28
2018-04-18T00:58:04.997Z,77.62
2018-04-18T01:00:35.011Z,77.28
2018-04-18T01:03:03.254Z,77.31
2018-04-18T01:05:30.806Z,78.08
2018-04-18T01:07:58.385Z,77.12
2018-04-18T01:10:25.912Z,77.44
2018-04-18T01:12:53.506Z,77.46
2018-04-18T01:15:21.038Z,77.93
2018-04-18T01:17:48.611Z,77.78
2018-04-18T01:20:16.142Z,77.75
2018-04-18T01:22:43.669Z,77.80
2018-04-18T01:25:11.238Z,77.93
2018-04-18T01:27:38.771Z,78.16
2018-04-18T01:30:06.421Z,78.71
2018-04-18T01:32:33.980Z,77.89
2018-04-18T01:35:01.549Z,77.79
2018-04-18T01:37:29.082Z,77.13
2018-04-18T01:39:56.635Z,78.38
2018-04-18T01:42:24.161Z,79.03
2018-04-18T01:44:51.738Z,78.85
2018-04-18T01:47:19.330Z,79.11
2018-04-18T01:49:46.996Z,78.36
2018-04-18T01:52:14.552Z,78.01
2018-04-18T01:54:42.074Z,78.39
2018-04-18T01:57:09.625Z,78.98
2018-04-18T01:59:37.152Z,79.07
2018-04-18T02:02:04.706Z,79.32
2018-04-18T02:04:32.260Z,78.85
2018-04-18T02:06:59.810Z,79.19
2018-04-18T02:09:27.339Z,78.64
2018-04-18T02:11:54.885Z,78.30
2018-04-18T02:14:22.416Z,79.07
2018-04-18T02:16:49.967Z,78.95
2018-04-18T02:19:17.538Z,79.10
2018-04-18T02:21:45.168Z,79.43
2018-04-18T02:24:12.700Z,79.57
2018-04-18T02:26:40.279Z,80.32
2018-04-18T02:29:07.830Z,79.58
2018-04-18T02:31:35.380Z,79.54
2018-04-18T02:34:02.984Z,79.19
2018-04-18T02:36:30.536Z,79.44
2018-04-18T02:38:58.088Z,79.95
2018-04-18T02:41:25.640Z,80.37
2018-04-18T02:43:53.298Z,80.15
2018-04-18T02:46:20.817Z,79.89
2018-04-18T02:48:48.369Z,79.54
2018-04-18T02:51:15.976Z,80.03
2018-04-18T02:53:43.549Z,79.75
2018-04-18T02:56:11.078Z,80.00
2018-04-18T02:58:38.653Z,80.19
2018-04-18T03:01:06.214Z,80.10
2018-04-18T03:03:34.558Z,80.63
2018-04-18T03:06:02.144Z,80.75
2018-04-18T03:08:29.687Z,81.05
2018-04-18T03:10:57.271Z,81.38
2018-04-18T03:13:24.830Z,80.73
2018-04-18T03:15:52.393Z,80.65
2018-04-18T03:18:19.918Z,81.09
2018-04-18T03:20:47.501Z,81.18
2018-04-18T03:23:15.026Z,81.43
2018-04-18T03:25:42.597Z,81.05
2018-04-18T03:28:10.133Z,80.59
2018-04-18T03:30:37.714Z,81.70
2018-04-18T03:33:05.289Z,82.21
2018-04-18T03:35:32.801Z,81.69
2018-04-18T03:38:00.441Z,81.15
2018-04-18T03:40:27.965Z,81.27
2018-04-18T03:42:55.677Z,81.01
2018-04-18T03:45:23.197Z,81.46
2018-04-18T03:47:50.746Z,81.72
2018-04-18T03:50:18.277Z,81.89
2018-04-18T03:52:45.900Z,81.86
2018-04-18T03:55:13.456Z,81.83
2018-04-18T03:57:41.110Z,81.21
2018-04-18T04:00:08.633Z,81.81
2018-04-18T04:02:37.238Z,81.55
2018-04-18T04:05:04.790Z,81.61
2018-04-18T04:07:32.370Z,81.87
2018-04-18T04:09:59.935Z,81.39
2018-04-18T04:12:27.454Z,81.00
2018-04-18T04:14:55.026Z,80.89
2018-04-18T04:17:34.455Z,81.04
2018-04-18T04:20:13.879Z,81.31
2018-04-18T04:22:53.340Z,81.29
2018-04-18T04:25:20.929Z,82.46
2018-04-18T04:27:48.486Z,83.03
2018-04-18T04:30:16.941Z,82.34
2018-04-18T04:32:44.521Z,82.60
2018-04-18T04:35:12.094Z,82.13
2018-04-18T04:37:39.613Z,81.29
2018-04-18T04:40:07.756Z,82.14
2018-04-18T04:42:35.377Z,81.26
2018-04-18T04:45:02.959Z,81.32
2018-04-18T04:47:30.606Z,81.63
2018-04-18T04:49:58.164Z,81.28
2018-04-18T04:52:25.820Z,82.31
2018-04-18T04:54:53.363Z,82.00
2018-04-18T04:57:20.918Z,81.67
2018-04-18T04:59:48.466Z,82.33
2018-04-18T05:02:16.058Z,81.57
2018-04-18T05:04:43.621Z,82.36
2018-04-18T05:07:11.872Z,82.85
2018-04-18T05:09:40.990Z,82.53
2018-04-18T05:12:08.831Z,83.05
2018-04-18T05:14:37.756Z,82.71
2018-04-18T05:17:07.699Z,81.94
2018-04-18T05:19:38.134Z,82.34
2018-04-18T05:22:09.654Z,81.76
2018-04-18T05:24:40.539Z,81.61
2018-04-18T05:27:11.730Z,81.41
2018-04-18T05:29:42.046Z,81.64
2018-04-18T05:32:10.017Z,80.80
2018-04-18T05:34:37.989Z,81.46
2018-04-18T05:37:06.405Z,81.95
2018-04-18T05:39:34.031Z,81.49
2018-04-18T05:42:02.069Z,80.65
2018-04-18T05:44:30.275Z,79.94
2018-04-18T05:46:57.986Z,80.59
2018-04-18T05:49:25.514Z,80.01
2018-04-18T05:51:53.315Z,79.49
2018-04-18T05:54:21.193Z,79.54
2018-04-18T05:56:51.820Z,79.16
2018-04-18T05:59:19.466Z,79.09
2018-04-18T06:01:47.024Z,78.89
2018-04-18T06:04:14.577Z,78.48
2018-04-18T06:06:42.200Z,78.73
2018-04-18T06:09:09.734Z,78.66
2018-04-18T06:11:38.088Z,78.39
2018-04-18T06:14:05.666Z,77.70
2018-04-18T06:16:33.187Z,77.51
2018-04-18T06:19:00.745Z,77.06
2018-04-18T06:21:28.270Z,77.30
2018-04-18T06:23:55.945Z,77.14
2018-04-18T06:26:23.473Z,76.81
2018-04-18T06:28:51.055Z,76.83
2018-04-18T06:31:18.600Z,76.78
2018-04-18T06:33:46.178Z,76.46
2018-04-18T06:36:13.709Z,76.25
2018-04-18T06:38:41.557Z,75.64
2018-04-18T06:41:09.747Z,75.35
2018-04-18T06:43:37.331Z,75.66
2018-04-18T06:46:04.866Z,75.62
2018-04-18T06:48:32.668Z,76.10
2018-04-18T06:51:00.320Z,75.64
2018-04-18T06:53:27.902Z,74.91
2018-04-18T06:55:55.442Z,74.75
2018-04-18T06:58:23.005Z,74.83
2018-04-18T07:00:50.554Z,74.22
2018-04-18T07:03:18.154Z,73.35
2018-04-18T07:05:45.766Z,72.70
2018-04-18T07:08:13.362Z,72.55
2018-04-18T07:10:40.887Z,72.33
2018-04-18T07:13:08.441Z,72.07
2018-04-18T07:15:36.019Z,71.35
2018-04-18T07:18:03.690Z,71.06
2018-04-18T07:20:31.221Z,71.07
2018-04-18T07:22:58.773Z,71.24
2018-04-18T07:25:26.361Z,70.81
2018-04-18T07:27:54.026Z,70.55
2018-04-18T07:30:21.559Z,70.77
2018-04-18T07:32:49.137Z,69.86
2018-04-18T07:35:16.712Z,70.29
2018-04-18T07:37:44.363Z,69.81
2018-04-18T07:40:12.042Z,69.37
2018-04-18T07:42:40.408Z,69.21
2018-04-18T07:45:07.995Z,68.81
2018-04-18T07:47:35.538Z,68.81
2018-04-18T07:50:03.178Z,68.92
2018-04-18T07:52:30.705Z,68.13
2018-04-18T07:54:58.314Z,67.76
2018-04-18T07:57:25.832Z,67.35
2018-04-18T07:59:53.387Z,66.89
2018-04-18T08:02:20.935Z,66.35
2018-04-18T08:04:48.490Z,66.03
2018-04-18T08:07:16.102Z,64.63
2018-04-18T08:09:43.671Z,64.03
2018-04-18T08:12:11.650Z,63.44
2018-04-18T08:14:40.301Z,62.94
2018-04-18T08:17:09.504Z,62.67
2018-04-18T08:19:38.500Z,62.11
2018-04-18T08:22:06.628Z,61.82
2018-04-18T08:24:34.343Z,60.21
2018-04-18T08:27:02.461Z,59.50
2018-04-18T08:29:30.038Z,59.45
2018-04-18T08:31:57.813Z,58.26
2018-04-18T08:34:26.095Z,58.51
2018-04-18T08:36:54.037Z,56.59
2018-04-18T08:39:22.215Z,56.38
2018-04-18T08:41:49.969Z,56.53
2018-04-18T08:44:17.527Z,56.87
2018-04-18T08:46:45.074Z,56.36
2018-04-18T08:49:13.604Z,55.61
2018-04-18T08:51:42.459Z,55.86
2018-04-18T08:54:11.384Z,55.16
2018-04-18T08:56:39.083Z,54.79
2018-04-18T08:59:08.140Z,54.65
2018-04-18T09:01:36.490Z,52.52
2018-04-18T09:04:06.539Z,52.58
2018-04-18T09:06:36.392Z,53.52
2018-04-18T09:09:03.947Z,51.55
2018-04-18T09:11:31.600Z,52.77
2018-04-18T09:13:59.255Z,50.92
2018-04-18T09:16:26.801Z,50.59
2018-04-18T09:18:54.334Z,50.45
2018-04-18T09:21:22.150Z,50.08
2018-04-18T09:23:49.678Z,50.99
2018-04-18T09:26:17.262Z,50.22
2018-04-18T09:28:44.919Z,50.50
2018-04-18T09:31:12.482Z,49.28
2018-04-18T09:33:40.069Z,47.46
2018-04-18T09:36:07.700Z,47.80
2018-04-18T09:38:35.289Z,45.92
2018-04-18T09:41:02.827Z,45.97
2018-04-18T09:43:30.481Z,46.58
2018-04-18T09:45:58.039Z,45.31
2018-04-18T09:48:25.679Z,43.98
2018-04-18T09:50:53.262Z,45.08
2018-04-18T09:53:20.836Z,44.95
2018-04-18T09:55:48.455Z,44.28
2018-04-18T09:58:16.083Z,43.00
2018-04-18T10:00:51.557Z,43.16
2018-04-18T10:03:22.621Z,42.43
2018-04-18T10:05:50.175Z,42.18
2018-04-18T10:08:19.700Z,43.03
2018-04-18T10:10:47.602Z,41.70
2018-04-18T10:13:17.533Z,42.31
2018-04-18T10:15:45.251Z,41.74
2018-04-18T10:18:12.787Z,41.47
2018-04-18T10:20:40.338Z,41.83
2018-04-18T10:23:10.011Z,40.87
2018-04-18T10:25:37.988Z,39.92
2018-04-18T10:28:06.352Z,39.03
2018-04-18T10:30:34.795Z,39.50
2018-04-18T10:33:02.650Z,41.63
2018-04-18T10:35:30.850Z,40.64
2018-04-18T10:37:59.814Z,41.28
2018-04-18T10:40:28.859Z,40.32
2018-04-18T10:42:56.690Z,38.50
2018-04-18T10:45:26.735Z,39.34
2018-04-18T10:47:56.478Z,38.36
2018-04-18T10:50:26.195Z,39.03
2018-04-18T10:52:55.392Z,38.61
2018-04-18T10:55:25.819Z,37.83
2018-04-18T10:57:55.994Z,38.02
2018-04-18T11:00:25.619Z,34.52
2018-04-18T11:02:53.654Z,34.90
2018-04-18T11:05:21.317Z,35.67
2018-04-18T11:07:49.233Z,35.78
2018-04-18T11:10:17.412Z,34.69
2018-04-18T11:12:48.809Z,34.33
2018-04-18T11:15:16.720Z,34.93
2018-04-18T11:17:44.263Z,34.68
2018-04-18T11:20:12.618Z,33.27
2018-04-18T11:22:40.167Z,34.13
2018-04-18T11:25:07.730Z,35.38
2018-04-18T11:27:35.273Z,33.46
2018-04-18T11:30:02.853Z,34.03
2018-04-18T11:32:30.521Z,33.61
2018-04-18T11:34:58.057Z,35.17
2018-04-18T11:37:25.631Z,33.44
2018-04-18T11:39:53.169Z,34.52
2018-04-18T11:42:20.736Z,35.23
2018-04-18T11:44:48.310Z,35.64
2018-04-18T11:47:15.973Z,35.26
2018-04-18T11:49:43.543Z,35.27
2018-04-18T11:52:11.192Z,35.83
2018-04-18T11:54:38.752Z,37.18
2018-04-18T11:57:06.413Z,36.12
2018-04-18T11:59:34.203Z,36.79
2018-04-18T12:02:04.724Z,35.93
2018-04-18T12:04:32.505Z,34.94
2018-04-18T12:07:01.107Z,36.76
2018-04-18T12:09:30.185Z,35.58
2018-04-18T12:11:57.815Z,36.23
2018-04-18T12:14:27.138Z,36.06
2018-04-18T12:16:56.853Z,37.70
2018-04-18T12:19:25.025Z,35.54
2018-04-18T12:21:52.597Z,35.10
2018-04-18T12:24:21.941Z,35.44
2018-04-18T12:26:50.876Z,35.63
2018-04-18T12:29:18.921Z,33.91
2018-04-18T12:31:48.053Z,34.20
2018-04-18T12:34:15.581Z,35.08
2018-04-18T12:36:45.185Z,35.44
2018-04-18T12:39:13.712Z,34.44
2018-04-18T12:41:41.709Z,34.29
2018-04-18T12:44:14.644Z,34.41
2018-04-18T12:46:46.947Z,32.96
2018-04-18T12:49:17.607Z,32.37
2018-04-18T12:51:47.051Z,33.72
2018-04-18T12:54:15.867Z,33.40
2018-04-18T12:56:44.031Z,33.96
2018-04-18T12:59:12.354Z,33.24
2018-04-18T13:01:40.131Z,32.89
2018-04-18T13:04:08.110Z,33.79
2018-04-18T13:06:36.460Z,33.92
2018-04-18T13:09:04.226Z,33.43
2018-04-18T13:11:31.867Z,33.87
2018-04-18T13:13:59.624Z,32.61
2018-04-18T13:16:27.434Z,33.85
2018-04-18T13:18:55.771Z,34.36
2018-04-18T13:21:23.349Z,33.82
2018-04-18T13:23:51.378Z,32.14
2018-04-18T13:26:18.954Z,31.91
2018-04-18T13:28:46.505Z,31.80
2018-04-18T13:31:14.039Z,32.05
2018-04-18T13:33:41.621Z,32.47
2018-04-18T13:36:09.439Z,31.64
2018-04-18T13:38:41.093Z,31.93
2018-04-18T13:41:09.595Z,32.33
2018-04-18T13:43:37.146Z,32.00
2018-04-18T13:46:04.695Z,32.25
2018-04-18T13:48:32.379Z,31.54
2018-04-18T13:50:59.905Z,32.01
2018-04-18T13:53:27.485Z,30.10
2018-04-18T13:55:55.157Z,30.55
2018-04-18T13:58:22.891Z,31.57
2018-04-18T14:00:50.438Z,31.48
2018-04-18T14:03:17.991Z,30.49
2018-04-18T14:05:45.516Z,30.68
2018-04-18T14:08:13.687Z,30.46
2018-04-18T14:10:41.730Z,30.79
2018-04-18T14:13:09.394Z,31.07
2018-04-18T14:15:36.924Z,28.92
2018-04-18T14:18:04.481Z,29.45
2018-04-18T14:20:33.124Z,31.07
2018-04-18T14:23:00.734Z,29.91
2018-04-18T14:25:28.534Z,29.50
2018-04-18T14:27:56.086Z,29.37
2018-04-18T14:30:23.743Z,29.41
2018-04-18T14:32:51.949Z,30.16
2018-04-18T14:35:19.573Z,28.40
2018-04-18T14:37:47.247Z,29.38
2018-04-18T14:40:14.749Z,29.02
2018-04-18T14:42:42.378Z,27.12
2018-04-18T14:45:11.629Z,27.74
2018-04-18T14:47:39.198Z,26.41
2018-04-18T14:50:09.897Z,26.95
2018-04-18T14:52:37.709Z,28.59
2018-04-18T14:55:06.110Z,28.22
2018-04-18T14:57:33.670Z,28.96
2018-04-18T15:00:01.215Z,28.59
2018-04-18T15:02:28.876Z,26.46
2018-04-18T15:04:56.447Z,26.97
2018-04-18T15:07:23.970Z,26.05
2018-04-18T15:09:51.521Z,25.60
2018-04-18T15:12:19.046Z,26.42
2018-04-18T15:14:47.426Z,26.56
2018-04-18T15:17:15.479Z,26.47
2018-04-18T15:19:44.032Z,27.02
2018-04-18T15:22:11.604Z,28.00
2018-04-18T15:24:40.201Z,27.20
2018-04-18T15:27:07.805Z,26.30
2018-04-18T15:29:35.370Z,27.41
2018-04-18T15:32:02.893Z,26.81
2018-04-18T15:34:32.422Z,28.66
2018-04-18T15:37:00.105Z,27.77
2018-04-18T15:39:28.383Z,27.41
2018-04-18T15:41:55.906Z,27.90
2018-04-18T15:44:23.455Z,27.61
2018-04-18T15:46:51.104Z,28.14
2018-04-18T15:49:18.762Z,27.77
2018-04-18T15:51:46.845Z,27.25
2018-04-18T15:54:14.418Z,27.28
2018-04-18T15:56:42.193Z,27.60
2018-04-18T15:59:09.820Z,27.80
2018-04-18T16:01:37.376Z,27.09
2018-04-18T16:04:05.881Z,27.73
2018-04-18T16:06:33.523Z,28.28
2018-04-18T16:09:01.108Z,28.32
2018-04-18T16:11:32.777Z,27.93
2018-04-18T16:14:00.689Z,27.57
2018-04-18T16:16:28.257Z,28.70
2018-04-18T16:18:55.818Z,27.71
2018-04-18T16:21:23.341Z,27.73
2018-04-18T16:23:50.893Z,27.75
2018-04-18T16:26:18.423Z,27.78
2018-04-18T16:28:45.997Z,27.80
2018-04-18T16:31:13.522Z,28.54
2018-04-18T16:33:41.077Z,28.21
2018-04-18T16:36:08.605Z,28.58
2018-04-18T16:38:36.173Z,28.89
2018-04-18T16:41:03.734Z,28.68
2018-04-18T16:43:31.313Z,29.22
2018-04-18T16:45:58.887Z,29.81
2018-04-18T16:48:26.533Z,30.17
2018-04-18T16:50:54.869Z,30.25
2018-04-18T16:53:22.475Z,30.34
2018-04-18T16:55:50.021Z,31.11
2018-04-18T16:58:20.837Z,30.81
2018-04-18T17:00:48.600Z,30.75
2018-04-18T17:03:20.453Z,31.84
2018-04-18T17:05:49.790Z,31.74
2018-04-18T17:08:17.862Z,31.42
2018-04-18T17:10:46.785Z,32.20
2018-04-18T17:13:15.319Z,32.43
2018-04-18T17:15:44.771Z,32.77
2018-04-18T17:18:14.144Z,32.71
2018-04-18T17:20:45.403Z,33.26
2018-04-18T17:23:13.196Z,33.71
2018-04-18T17:25:44.843Z,33.10
2018-04-18T17:28:13.900Z,32.22
2018-04-18T17:30:43.464Z,30.08
2018-04-18T17:33:12.655Z,29.41
2018-04-18T17:35:40.369Z,30.62
2018-04-18T17:38:09.260Z,30.66
2018-04-18T17:40:37.537Z,31.36
2018-04-18T17:43:06.736Z,31.72
2018-04-18T17:45:34.511Z,32.63
2018-04-18T17:48:06.248Z,33.08
2018-04-18T17:50:34.247Z,33.29
2018-04-18T17:53:02.093Z,33.70
2018-04-18T17:55:30.982Z,34.15
2018-04-18T17:57:59.473Z,34.87
2018-04-18T18:00:29.086Z,36.14
2018-04-18T18:02:57.609Z,37.25
2018-04-18T18:05:26.188Z,37.13
2018-04-18T18:07:53.740Z,37.66
2018-04-18T18:10:23.560Z,37.58
2018-04-18T18:12:51.994Z,38.39
2018-04-18T18:15:19.753Z,39.00
2018-04-18T18:17:48.140Z,39.51
2018-04-18T18:20:16.894Z,39.69
2018-04-18T18:22:45.301Z,39.88
2018-04-18T18:25:13.796Z,40.29
2018-04-18T18:27:41.510Z,40.65
2018-04-18T18:30:09.114Z,41.17
2018-04-18T18:32:40.154Z,41.43
2018-04-18T18:35:09.110Z,42.09
2018-04-18T18:37:37.864Z,42.39
2018-04-18T18:40:07.493Z,43.08
2018-04-18T18:42:35.015Z,43.43
2018-04-18T18:45:04.392Z,43.14
2018-04-18T18:47:31.923Z,43.88
2018-04-18T18:49:59.777Z,44.42
2018-04-18T18:52:27.994Z,44.91
2018-04-18T18:54:56.481Z,44.88
2018-04-18T18:57:24.033Z,45.18
2018-04-18T18:59:51.584Z,45.46
2018-04-18T19:02:19.153Z,45.52
2018-04-18T19:04:46.816Z,46.32
2018-04-18T19:07:14.361Z,46.70
2018-04-18T19:09:41.895Z,47.13
2018-04-18T19:12:09.522Z,47.40
2018-04-18T19:14:37.053Z,47.53
2018-04-18T19:17:04.629Z,48.01
2018-04-18T19:19:32.255Z,48.30
2018-04-18T19:21:59.922Z,48.43
2018-04-18T19:24:27.708Z,48.33
2018-04-18T19:26:55.284Z,48.59
2018-04-18T19:29:23.056Z,48.94
2018-04-18T19:31:52.939Z,49.39
2018-04-18T19:34:20.490Z,50.07
2018-04-18T19:36:48.447Z,50.60
2018-04-18T19:39:16.197Z,50.69
2018-04-18T19:41:43.775Z,50.49
2018-04-18T19:44:11.302Z,50.94
2018-04-18T19:46:38.901Z,51.35
2018-04-18T19:49:06.429Z,51.90
2018-04-18T19:51:33.984Z,51.51
2018-04-18T19:54:01.535Z,51.32
2018-04-18T19:56:29.086Z,51.34
2018-04-18T19:58:56.708Z,51.46
2018-04-18T20:01:25.145Z,51.92
2018-04-18T20:03:53.056Z,51.94
2018-04-18T20:06:20.717Z,51.97
2018-04-18T20:08:48.458Z,52.77
2018-04-18T20:11:16.026Z,52.57
2018-04-18T20:13:43.554Z,52.98
2018-04-18T20:16:11.263Z,53.38
2018-04-18T20:18:39.934Z,53.22
2018-04-18T20:21:07.486Z,52.85
2018-04-18T20:23:35.011Z,53.61
2018-04-18T20:26:02.631Z,54.21
2018-04-18T20:28:30.186Z,54.75
2018-04-18T20:30:57.718Z,54.49
2018-04-18T20:33:25.520Z,54.50
2018-04-18T20:35:53.073Z,54.58
2018-04-18T20:38:20.626Z,54.55
2018-04-18T20:40:48.598Z,54.38
2018-04-18T20:43:16.266Z,55.23
2018-04-18T20:45:43.838Z,55.82
2018-04-18T20:48:11.415Z,56.06
2018-04-18T20:50:38.942Z,57.22
2018-04-18T20:53:06.907Z,56.76
2018-04-18T20:55:34.451Z,56.41
2018-04-18T20:58:02.049Z,57.07
2018-04-18T21:00:29.694Z,57.85
2018-04-18T21:02:57.246Z,57.68
2018-04-18T21:05:24.798Z,58.41
2018-04-18T21:07:52.376Z,58.22
2018-04-18T21:10:19.877Z,59.01
2018-04-18T21:12:47.433Z,58.92
2018-04-18T21:17:41.812Z,59.78
2018-04-18T21:20:09.414Z,59.37
2018-04-18T21:22:36.961Z,59.01
2018-04-18T21:25:04.513Z,59.59
2018-04-18T21:27:32.098Z,60.44
2018-04-18T21:29:59.649Z,59.95
2018-04-18T21:32:27.224Z,59.71
2018-04-18T21:34:54.753Z,59.97
2018-04-18T21:37:22.303Z,59.36
2018-04-18T21:39:49.831Z,59.32
2018-04-18T21:42:17.409Z,60.09
2018-04-18T21:44:44.945Z,60.01
2018-04-18T21:47:14.489Z,60.32
2018-04-18T21:49:42.418Z,61.10
2018-04-18T21:52:10.616Z,60.77
2018-04-18T21:54:38.674Z,60.40
2018-04-18T21:57:06.199Z,59.81
2018-04-18T21:59:33.748Z,60.41
2018-04-18T22:02:01.552Z,61.06
2018-04-18T22:04:29.156Z,60.84
2018-04-18T22:06:57.072Z,60.98
2018-04-18T22:09:24.665Z,61.60
2018-04-18T22:11:52.667Z,62.22
2018-04-18T22:14:20.855Z,62.46
2018-04-18T22:16:49.933Z,62.56
2018-04-18T22:19:17.811Z,62.98
2018-04-18T22:21:46.320Z,63.01
2018-04-18T22:24:14.422Z,64.42
2018-04-18T22:26:42.531Z,64.10
2018-04-18T22:29:10.174Z,66.18
2018-04-18T22:31:38.298Z,65.60
2018-04-18T22:34:06.487Z,64.91
2018-04-18T22:36:34.134Z,64.22
2018-04-18T22:39:01.732Z,64.36
2018-04-18T22:41:29.257Z,65.00
2018-04-18T22:43:56.836Z,64.70
2018-04-18T22:46:24.371Z,63.81
2018-04-18T22:48:52.042Z,64.09
2018-04-18T22:51:20.106Z,63.51
2018-04-18T22:53:47.675Z,63.90
2018-04-18T22:56:19.470Z,63.96
2018-04-18T22:58:48.877Z,63.62
2018-04-18T23:01:16.731Z,63.86
2018-04-18T23:03:44.484Z,63.62
2018-04-18T23:06:13.053Z,63.79
2018-04-18T23:08:41.111Z,63.78
2018-04-18T23:11:08.795Z,63.95
2018-04-18T23:13:36.911Z,64.84
2018-04-18T23:16:08.237Z,64.79
2018-04-18T23:18:38.217Z,65.44
2018-04-18T23:21:06.781Z,64.85
2018-04-18T23:23:37.803Z,65.37
2018-04-18T23:26:05.911Z,65.03
2018-04-18T23:28:33.706Z,64.73
2018-04-18T23:31:01.657Z,64.12
2018-04-18T23:33:29.610Z,63.61
2018-04-18T23:35:57.280Z,63.45
2018-04-18T23:38:26.483Z,63.06
2018-04-18T23:40:55.740Z,62.78
2018-04-18T23:43:23.265Z,63.29
2018-04-18T23:45:50.840Z,63.40
2018-04-18T23:48:18.396Z,63.78
2018-04-18T23:50:45.975Z,64.15
2018-04-18T23:53:13.529Z,64.13
2018-04-18T23:55:41.086Z,64.13
2018-04-18T23:58:08.606Z,64.54
